createdAt,value
2022-09-23T00:01:08.923Z,81.27
2022-09-23T00:03:38.336Z,81.47
2022-09-23T00:06:11.724Z,81.27
2022-09-23T00:08:38.813Z,81.55
2022-09-23T00:11:10.607Z,81.14
2022-09-23T00:13:39.416Z,81.42
2022-09-23T00:16:08.128Z,81.32
2022-09-23T00:18:34.801Z,81.24
2022-09-23T00:21:06.239Z,81.45
2022-09-23T00:23:33.344Z,81.56
2022-09-23T00:26:01.731Z,81.50
2022-09-23T00:28:28.873Z,81.88
2022-09-23T00:30:55.273Z,81.98
2022-09-23T00:33:21.817Z,82.11
2022-09-23T00:35:48.563Z,82.06
2022-09-23T00:38:15.113Z,82.21
2022-09-23T00:40:46.127Z,81.94
2022-09-23T00:43:14.748Z,82.59
2022-09-23T00:45:46.246Z,82.30
2022-09-23T00:48:20.409Z,81.97
2022-09-23T00:50:54.167Z,82.00
2022-09-23T00:53:23.786Z,82.04
2022-09-23T00:55:54.643Z,82.16
2022-09-23T00:58:24.714Z,82.17
2022-09-23T01:00:51.177Z,82.09
2022-09-23T01:03:19.622Z,81.90
2022-09-23T01:05:46.998Z,81.95
2022-09-23T01:08:15.257Z,82.36
2022-09-23T01:11:10.201Z,82.01
2022-09-23T01:14:03.263Z,82.21
2022-09-23T01:16:58.239Z,82.52
2022-09-23T01:19:59.794Z,82.30
2022-09-23T01:22:44.171Z,82.64
2022-09-23T01:25:40.780Z,82.52
2022-09-23T01:28:22.289Z,82.58
2022-09-23T01:31:06.819Z,82.65
2022-09-23T01:34:03.197Z,82.64
2022-09-23T01:36:42.835Z,82.82
2022-09-23T01:39:44.402Z,82.53
2022-09-23T01:42:22.542Z,82.73
2022-09-23T01:44:56.229Z,82.86
2022-09-23T01:47:33.271Z,82.79
2022-09-23T01:50:29.491Z,82.74
2022-09-23T01:53:02.502Z,83.38
2022-09-23T01:55:36.360Z,83.06
2022-09-23T01:58:13.272Z,83.13
2022-09-23T02:00:48.741Z,83.54
2022-09-23T02:03:28.580Z,83.34
2022-09-23T02:06:34.180Z,83.12
2022-09-23T02:09:16.285Z,83.31
2022-09-23T02:11:48.066Z,83.47
2022-09-23T02:14:22.952Z,83.36
2022-09-23T02:16:52.272Z,83.23
2022-09-23T02:19:32.189Z,83.20
2022-09-23T02:22:08.210Z,83.06
2022-09-23T02:24:38.369Z,83.08
2022-09-23T02:27:14.440Z,83.32
2022-09-23T02:30:02.637Z,83.44
2022-09-23T02:32:41.306Z,83.55
2022-09-23T02:35:32.955Z,83.58
2022-09-23T02:38:05.682Z,83.65
2022-09-23T02:40:53.294Z,83.63
2022-09-23T02:43:33.843Z,83.22
2022-09-23T02:46:00.825Z,83.27
2022-09-23T02:48:33.957Z,83.65
2022-09-23T02:51:02.312Z,83.42
2022-09-23T02:53:30.128Z,83.44
2022-09-23T02:55:56.694Z,83.38
2022-09-23T02:58:23.194Z,83.17
2022-09-23T03:01:26.036Z,83.76
2022-09-23T03:03:58.364Z,83.93
2022-09-23T03:06:45.531Z,83.77
2022-09-23T03:09:33.833Z,83.65
2022-09-23T03:12:18.410Z,83.50
2022-09-23T03:15:00.445Z,83.51
2022-09-23T03:17:37.521Z,83.70
2022-09-23T03:20:15.398Z,83.97
2022-09-23T03:22:49.568Z,83.96
2022-09-23T03:25:23.889Z,83.98
2022-09-23T03:27:51.425Z,84.12
2022-09-23T03:30:18.395Z,83.79
2022-09-23T03:32:46.308Z,83.48
2022-09-23T03:35:14.017Z,83.80
2022-09-23T03:37:53.921Z,83.86
2022-09-23T03:40:42.887Z,83.98
2022-09-23T03:43:12.664Z,83.76
2022-09-23T03:45:40.105Z,84.32
2022-09-23T03:48:07.802Z,84.05
2022-09-23T03:50:35.667Z,84.09
2022-09-23T03:53:02.005Z,84.37
2022-09-23T03:55:28.476Z,84.20
2022-09-23T03:57:55.620Z,84.04
2022-09-23T04:00:22.134Z,83.84
2022-09-23T04:02:49.776Z,83.88
2022-09-23T04:05:16.510Z,84.19
2022-09-23T04:07:42.951Z,84.33
2022-09-23T04:10:10.414Z,84.13
2022-09-23T04:12:37.630Z,84.39
2022-09-23T04:15:04.626Z,84.18
2022-09-23T04:17:30.979Z,84.48
2022-09-23T04:19:57.337Z,84.53
2022-09-23T04:22:23.739Z,84.25
2022-09-23T04:24:50.100Z,84.88
2022-09-23T04:27:16.769Z,84.40
2022-09-23T04:29:43.186Z,84.25
2022-09-23T04:32:10.149Z,84.08
2022-09-23T04:34:36.512Z,84.12
2022-09-23T04:37:03.084Z,84.53
2022-09-23T04:39:29.462Z,84.56
2022-09-23T04:41:55.800Z,84.58
2022-09-23T04:44:22.172Z,84.56
2022-09-23T04:46:49.198Z,84.85
2022-09-23T04:49:16.125Z,84.88
2022-09-23T04:51:43.486Z,84.77
2022-09-23T04:54:11.766Z,84.96
2022-09-23T04:56:38.322Z,84.97
2022-09-23T04:59:04.908Z,85.11
2022-09-23T05:01:34.434Z,84.95
2022-09-23T05:04:03.507Z,85.11
2022-09-23T05:06:31.493Z,85.21
2022-09-23T05:08:59.432Z,84.98
2022-09-23T05:11:26.463Z,85.05
2022-09-23T05:13:54.285Z,84.81
2022-09-23T05:16:23.125Z,84.93
2022-09-23T05:18:51.147Z,85.01
2022-09-23T05:21:19.939Z,85.32
2022-09-23T05:23:54.073Z,85.56
2022-09-23T05:26:21.945Z,85.34
2022-09-23T05:28:48.507Z,85.45
2022-09-23T05:31:20.642Z,85.69
2022-09-23T05:33:52.970Z,85.70
2022-09-23T05:36:21.532Z,85.56
2022-09-23T05:38:49.823Z,85.44
2022-09-23T05:41:18.431Z,85.63
2022-09-23T05:43:45.117Z,85.56
2022-09-23T05:46:14.445Z,85.33
2022-09-23T05:48:42.188Z,85.31
2022-09-23T05:51:13.097Z,85.18
2022-09-23T05:53:40.169Z,85.28
2022-09-23T05:56:07.245Z,85.38
2022-09-23T05:58:33.825Z,85.56
2022-09-23T06:01:00.195Z,85.73
2022-09-23T06:03:26.770Z,85.57
2022-09-23T06:05:54.338Z,85.32
2022-09-23T06:08:21.795Z,85.21
2022-09-23T06:10:53.570Z,85.29
2022-09-23T06:13:20.830Z,85.83
2022-09-23T06:15:47.247Z,85.79
2022-09-23T06:18:13.731Z,85.52
2022-09-23T06:20:40.171Z,85.61
2022-09-23T06:23:10.508Z,85.59
2022-09-23T06:25:40.710Z,86.05
2022-09-23T06:28:10.730Z,85.52
2022-09-23T06:30:37.227Z,85.88
2022-09-23T06:33:03.618Z,85.70
2022-09-23T06:35:32.441Z,85.83
2022-09-23T06:37:59.137Z,85.86
2022-09-23T06:40:25.680Z,85.96
2022-09-23T06:42:59.941Z,86.19
2022-09-23T06:45:27.102Z,85.77
2022-09-23T06:47:56.280Z,85.69
2022-09-23T06:50:24.040Z,85.55
2022-09-23T06:52:58.329Z,85.69
2022-09-23T06:55:27.142Z,85.57
2022-09-23T06:57:58.275Z,85.76
2022-09-23T07:00:26.117Z,85.76
2022-09-23T07:02:54.711Z,85.27
2022-09-23T07:05:22.300Z,85.31
2022-09-23T07:07:49.007Z,84.89
2022-09-23T07:10:15.732Z,84.90
2022-09-23T07:12:42.441Z,84.66
2022-09-23T07:15:09.757Z,84.45
2022-09-23T07:17:36.136Z,83.95
2022-09-23T07:20:02.719Z,83.78
2022-09-23T07:22:29.122Z,83.46
2022-09-23T07:24:56.011Z,83.34
2022-09-23T07:27:26.842Z,82.79
2022-09-23T07:29:53.535Z,82.58
2022-09-23T07:32:21.880Z,82.31
2022-09-23T07:34:48.462Z,81.91
2022-09-23T07:37:16.462Z,81.71
2022-09-23T07:39:43.572Z,81.32
2022-09-23T07:42:12.368Z,80.67
2022-09-23T07:44:39.375Z,80.29
2022-09-23T07:47:06.206Z,79.85
2022-09-23T07:49:35.388Z,79.55
2022-09-23T07:52:02.089Z,78.97
2022-09-23T07:54:29.924Z,78.64
2022-09-23T07:56:56.850Z,78.40
2022-09-23T07:59:23.414Z,78.45
2022-09-23T08:01:52.610Z,77.99
2022-09-23T08:04:25.423Z,77.51
2022-09-23T08:06:54.308Z,77.05
2022-09-23T08:09:23.635Z,76.48
2022-09-23T08:11:50.657Z,76.35
2022-09-23T08:14:18.415Z,75.63
2022-09-23T08:16:45.655Z,74.94
2022-09-23T08:19:12.691Z,74.71
2022-09-23T08:21:40.319Z,74.30
2022-09-23T08:24:08.783Z,73.50
2022-09-23T08:26:35.339Z,72.91
2022-09-23T08:29:02.095Z,72.56
2022-09-23T08:31:28.490Z,71.50
2022-09-23T08:33:56.397Z,71.41
2022-09-23T08:36:23.513Z,70.95
2022-09-23T08:38:50.136Z,70.32
2022-09-23T08:41:28.671Z,70.19
2022-09-23T08:44:01.523Z,69.23
2022-09-23T08:46:34.674Z,68.74
2022-09-23T08:49:01.518Z,68.04
2022-09-23T08:51:41.123Z,67.21
2022-09-23T08:54:10.417Z,66.71
2022-09-23T08:56:38.803Z,66.65
2022-09-23T08:59:12.058Z,66.33
2022-09-23T09:01:45.203Z,65.65
2022-09-23T09:04:19.054Z,65.84
2022-09-23T09:10:06.281Z,65.54
2022-09-23T09:12:47.831Z,65.54
2022-09-23T09:15:24.641Z,64.79
2022-09-23T09:18:19.861Z,64.73
2022-09-23T09:21:13.874Z,64.60
2022-09-23T09:23:43.224Z,64.52
2022-09-23T09:26:21.422Z,64.14
2022-09-23T09:29:17.076Z,64.16
2022-09-23T09:31:50.591Z,64.12
2022-09-23T09:34:30.060Z,63.67
2022-09-23T09:37:23.309Z,64.05
2022-09-23T09:39:50.642Z,63.48
2022-09-23T09:42:25.094Z,63.76
2022-09-23T09:44:58.514Z,63.38
2022-09-23T09:47:38.885Z,62.53
2022-09-23T09:50:11.951Z,62.93
2022-09-23T09:52:38.312Z,62.53
2022-09-23T09:55:13.617Z,62.14
2022-09-23T09:57:44.055Z,61.51
2022-09-23T10:00:26.293Z,60.94
2022-09-23T10:03:01.117Z,60.36
2022-09-23T10:05:55.369Z,60.65
2022-09-23T10:08:29.331Z,59.71
2022-09-23T10:11:15.066Z,60.05
2022-09-23T10:13:42.284Z,60.25
2022-09-23T10:16:09.388Z,59.81
2022-09-23T10:18:47.750Z,60.19
2022-09-23T10:21:16.346Z,59.05
2022-09-23T10:23:55.558Z,58.70
2022-09-23T10:26:50.848Z,57.15
2022-09-23T10:29:29.035Z,57.42
2022-09-23T10:32:30.918Z,57.97
2022-09-23T10:34:58.618Z,56.67
2022-09-23T10:37:27.882Z,56.18
2022-09-23T10:40:13.039Z,56.17
2022-09-23T10:43:26.308Z,56.85
2022-09-23T10:46:14.004Z,55.91
2022-09-23T10:48:55.997Z,55.73
2022-09-23T10:51:39.542Z,56.02
2022-09-23T10:54:18.283Z,56.48
2022-09-23T10:57:36.020Z,56.44
2022-09-23T11:00:43.667Z,56.75
2022-09-23T11:03:27.094Z,57.22
2022-09-23T11:06:03.141Z,56.87
2022-09-23T11:08:59.156Z,56.67
2022-09-23T11:11:34.396Z,56.91
2022-09-23T11:14:16.751Z,56.91
2022-09-23T11:17:04.258Z,57.17
2022-09-23T11:19:55.912Z,56.54
2022-09-23T11:22:45.567Z,56.30
2022-09-23T11:25:43.234Z,56.90
2022-09-23T11:28:30.547Z,56.58
2022-09-23T11:31:26.943Z,56.14
2022-09-23T11:34:02.439Z,56.76
2022-09-23T11:36:34.617Z,56.85
2022-09-23T11:39:07.981Z,56.29
2022-09-23T11:41:37.956Z,56.82
2022-09-23T11:44:14.971Z,56.63
2022-09-23T11:46:50.025Z,55.53
2022-09-23T11:49:23.202Z,56.07
2022-09-23T11:52:19.690Z,55.13
2022-09-23T11:55:06.260Z,54.67
2022-09-23T11:57:54.303Z,53.91
2022-09-23T12:00:29.606Z,53.88
2022-09-23T12:03:17.777Z,53.01
2022-09-23T12:05:47.786Z,52.87
2022-09-23T12:08:27.166Z,53.26
2022-09-23T12:11:06.461Z,52.92
2022-09-23T12:13:41.642Z,53.01
2022-09-23T12:16:26.755Z,52.55
2022-09-23T12:18:56.147Z,51.41
2022-09-23T12:21:50.205Z,52.41
2022-09-23T12:24:36.252Z,51.31
2022-09-23T12:27:08.649Z,51.95
2022-09-23T12:29:36.435Z,52.01
2022-09-23T12:32:09.748Z,52.54
2022-09-23T12:34:48.989Z,52.89
2022-09-23T12:37:26.479Z,52.85
2022-09-23T12:39:54.288Z,53.07
2022-09-23T12:42:23.794Z,53.38
2022-09-23T12:44:51.864Z,52.28
2022-09-23T12:47:21.152Z,52.67
2022-09-23T12:49:48.518Z,52.62
2022-09-23T12:52:17.849Z,52.71
2022-09-23T12:54:49.779Z,51.16
2022-09-23T12:57:34.575Z,51.39
2022-09-23T13:00:09.473Z,51.47
2022-09-23T13:02:39.698Z,51.18
2022-09-23T13:05:41.808Z,50.78
2022-09-23T13:08:14.508Z,50.77
2022-09-23T13:10:56.376Z,50.56
2022-09-23T13:13:25.275Z,50.76
2022-09-23T13:15:53.481Z,50.32
2022-09-23T13:18:22.657Z,51.82
2022-09-23T13:20:56.747Z,50.69
2022-09-23T13:23:24.826Z,51.58
2022-09-23T13:25:54.350Z,51.90
2022-09-23T13:28:31.849Z,51.21
2022-09-23T13:30:59.001Z,52.20
2022-09-23T13:33:38.177Z,52.30
2022-09-23T13:36:11.983Z,52.48
2022-09-23T13:38:38.606Z,53.36
2022-09-23T13:41:14.487Z,52.23
2022-09-23T13:43:42.524Z,52.37
2022-09-23T13:46:31.187Z,52.58
2022-09-23T13:48:57.580Z,52.08
2022-09-23T13:51:30.040Z,52.18
2022-09-23T13:53:58.729Z,52.67
2022-09-23T13:56:27.985Z,52.40
2022-09-23T13:58:56.571Z,52.17
2022-09-23T14:01:33.796Z,52.31
2022-09-23T14:04:02.269Z,52.17
2022-09-23T14:06:35.972Z,50.96
2022-09-23T14:09:02.683Z,50.88
2022-09-23T14:11:33.084Z,51.54
2022-09-23T14:14:05.853Z,51.55
2022-09-23T14:16:35.579Z,50.77
2022-09-23T14:19:02.271Z,50.51
2022-09-23T14:21:36.176Z,51.44
2022-09-23T14:24:22.644Z,51.57
2022-09-23T14:26:53.314Z,51.65
2022-09-23T14:29:30.806Z,51.60
2022-09-23T14:32:03.823Z,51.36
2022-09-23T14:35:01.128Z,51.79
2022-09-23T14:37:57.524Z,52.10
2022-09-23T14:40:31.390Z,52.40
2022-09-23T14:43:08.731Z,52.28
2022-09-23T14:45:38.364Z,52.78
2022-09-23T14:48:17.496Z,53.34
2022-09-23T14:50:51.307Z,53.65
2022-09-23T14:53:23.779Z,54.20
2022-09-23T14:55:53.415Z,55.35
2022-09-23T14:58:25.510Z,55.60
2022-09-23T15:00:57.848Z,56.45
2022-09-23T15:03:24.347Z,57.07
2022-09-23T15:06:07.703Z,57.59
2022-09-23T15:08:35.705Z,57.93
2022-09-23T15:11:08.078Z,58.02
2022-09-23T15:13:39.639Z,58.28
2022-09-23T15:16:06.661Z,58.51
2022-09-23T15:18:38.603Z,59.11
2022-09-23T15:21:15.890Z,59.25
2022-09-23T15:23:48.012Z,59.28
2022-09-23T15:26:18.780Z,60.30
2022-09-23T15:28:45.584Z,60.69
2022-09-23T15:31:17.378Z,60.32
2022-09-23T15:33:44.692Z,60.88
2022-09-23T15:36:29.509Z,61.14
2022-09-23T15:39:01.098Z,61.47
2022-09-23T15:41:27.874Z,61.50
2022-09-23T15:43:56.305Z,61.54
2022-09-23T15:46:27.323Z,61.93
2022-09-23T15:49:04.600Z,62.27
2022-09-23T15:51:31.213Z,62.56
2022-09-23T15:53:57.771Z,62.83
2022-09-23T15:56:26.915Z,63.16
2022-09-23T15:58:53.295Z,63.79
2022-09-23T16:01:20.033Z,64.06
2022-09-23T16:03:46.450Z,64.16
2022-09-23T16:06:13.446Z,65.34
2022-09-23T16:08:42.158Z,65.25
2022-09-23T16:11:31.605Z,65.91
2022-09-23T16:14:01.240Z,66.76
2022-09-23T16:16:28.023Z,67.07
2022-09-23T16:18:54.728Z,66.87
2022-09-23T16:21:24.166Z,67.58
2022-09-23T16:23:51.380Z,67.81
2022-09-23T16:26:27.164Z,68.70
2022-09-23T16:28:55.428Z,69.38
2022-09-23T16:31:25.227Z,69.99
2022-09-23T16:33:53.011Z,70.82
2022-09-23T16:36:28.763Z,71.44
2022-09-23T16:38:55.715Z,72.06
2022-09-23T16:41:23.606Z,72.46
2022-09-23T16:43:53.533Z,73.26
2022-09-23T16:46:21.177Z,73.91
2022-09-23T16:48:52.313Z,73.68
2022-09-23T16:51:21.714Z,73.96
2022-09-23T16:53:49.654Z,74.48
2022-09-23T16:56:18.284Z,75.30
2022-09-23T16:58:44.909Z,75.71
2022-09-23T17:01:38.292Z,76.38
2022-09-23T17:04:05.226Z,76.26
2022-09-23T17:06:31.586Z,76.63
2022-09-23T17:08:57.998Z,77.20
2022-09-23T17:11:24.352Z,76.75
2022-09-23T17:13:51.558Z,77.86
2022-09-23T17:16:27.569Z,78.23
2022-09-23T17:18:55.390Z,78.27
2022-09-23T17:21:26.353Z,78.77
2022-09-23T17:23:54.238Z,79.40
2022-09-23T17:26:22.119Z,80.03
2022-09-23T17:28:49.397Z,80.35
2022-09-23T17:31:15.833Z,79.91
2022-09-23T17:33:42.584Z,80.26
2022-09-23T17:36:11.286Z,80.85
2022-09-23T17:38:41.310Z,81.00
2022-09-23T17:41:09.028Z,80.95
2022-09-23T17:43:36.136Z,81.34
2022-09-23T17:46:12.771Z,81.90
2022-09-23T17:48:41.343Z,82.24
2022-09-23T17:51:12.465Z,82.40
2022-09-23T17:53:40.041Z,82.58
2022-09-23T17:56:15.343Z,82.66
2022-09-23T17:58:42.878Z,82.87
2022-09-23T18:01:11.570Z,83.29
2022-09-23T18:03:38.701Z,83.46
2022-09-23T18:06:07.222Z,83.55
2022-09-23T18:08:33.633Z,83.66
2022-09-23T18:11:00.033Z,83.77
2022-09-23T18:13:26.490Z,83.71
2022-09-23T18:15:52.913Z,83.89
2022-09-23T18:18:19.275Z,84.00
2022-09-23T18:20:45.734Z,84.05
2022-09-23T18:23:12.179Z,84.08
2022-09-23T18:25:39.854Z,84.05
2022-09-23T18:28:06.542Z,84.20
2022-09-23T18:30:33.459Z,84.25
2022-09-23T18:32:59.916Z,84.31
2022-09-23T18:35:26.458Z,84.55
2022-09-23T18:37:52.918Z,84.50
2022-09-23T18:40:19.392Z,84.80
2022-09-23T18:42:45.876Z,85.22
2022-09-23T18:45:12.298Z,84.97
2022-09-23T18:47:57.273Z,84.74
2022-09-23T18:50:43.178Z,84.83
2022-09-23T18:53:10.204Z,85.25
2022-09-23T18:55:36.639Z,85.53
2022-09-23T18:58:03.469Z,85.60
2022-09-23T19:00:30.054Z,86.07
2022-09-23T19:02:56.545Z,86.25
2022-09-23T19:05:22.911Z,86.18
2022-09-23T19:07:49.281Z,86.39
2022-09-23T19:10:15.711Z,86.32
2022-09-23T19:12:42.117Z,86.50
2022-09-23T19:15:09.208Z,86.60
2022-09-23T19:17:35.731Z,86.76
2022-09-23T19:20:02.195Z,86.89
2022-09-23T19:22:30.346Z,87.14
2022-09-23T19:24:56.695Z,87.06
2022-09-23T19:27:23.414Z,86.99
2022-09-23T19:29:50.177Z,87.05
2022-09-23T19:32:16.679Z,87.24
2022-09-23T19:34:43.573Z,87.15
2022-09-23T19:37:10.052Z,87.15
2022-09-23T19:39:37.426Z,87.32
2022-09-23T19:42:03.962Z,87.12
2022-09-23T19:44:30.317Z,87.41
2022-09-23T19:46:57.573Z,87.39
2022-09-23T19:49:25.369Z,87.38
2022-09-23T19:51:52.869Z,87.45
2022-09-23T19:54:20.511Z,87.36
2022-09-23T19:56:48.697Z,87.33
2022-09-23T19:59:18.788Z,87.37
2022-09-23T20:01:45.376Z,87.55
2022-09-23T20:04:11.879Z,87.54
2022-09-23T20:06:38.781Z,87.56
2022-09-23T20:09:05.866Z,87.69
2022-09-23T20:11:33.374Z,87.52
2022-09-23T20:14:04.700Z,87.54
2022-09-23T20:16:35.902Z,87.81
2022-09-23T20:19:04.317Z,88.20
2022-09-23T20:21:31.385Z,88.21
2022-09-23T20:23:58.104Z,88.31
2022-09-23T20:26:43.329Z,88.49
2022-09-23T20:29:10.715Z,88.66
2022-09-23T20:31:37.496Z,88.32
2022-09-23T20:34:05.874Z,88.28
2022-09-23T20:36:33.111Z,88.46
2022-09-23T20:39:01.547Z,88.71
2022-09-23T20:41:29.728Z,88.79
2022-09-23T20:44:00.398Z,88.78
2022-09-23T20:46:27.023Z,88.62
2022-09-23T20:48:54.252Z,88.52
2022-09-23T20:51:20.859Z,88.69
2022-09-23T20:53:54.756Z,88.62
2022-09-23T20:56:21.646Z,88.38
2022-09-23T20:58:48.599Z,88.62
2022-09-23T21:01:15.679Z,88.63
2022-09-23T21:03:44.548Z,88.84
2022-09-23T21:06:13.881Z,88.81
2022-09-23T21:08:40.789Z,88.81
2022-09-23T21:11:10.122Z,88.98
2022-09-23T21:13:36.789Z,88.85
2022-09-23T21:16:03.795Z,88.90
2022-09-23T21:18:30.953Z,89.08
2022-09-23T21:20:59.198Z,89.07
2022-09-23T21:23:37.929Z,89.22
2022-09-23T21:26:07.394Z,89.20
2022-09-23T21:28:39.183Z,89.02
2022-09-23T21:31:09.106Z,88.85
2022-09-23T21:33:38.394Z,89.06
2022-09-23T21:36:06.821Z,88.99
2022-09-23T21:38:37.143Z,89.00
2022-09-23T21:41:09.919Z,89.09
2022-09-23T21:43:39.517Z,88.88
2022-09-23T21:46:20.116Z,89.04
2022-09-23T21:48:49.848Z,89.06
2022-09-23T21:51:21.298Z,89.12
2022-09-23T21:53:47.755Z,89.38
2022-09-23T21:56:20.882Z,89.19
2022-09-23T21:58:48.262Z,89.25
2022-09-23T22:01:25.779Z,89.38
2022-09-23T22:03:58.016Z,89.61
2022-09-23T22:06:27.337Z,89.48
2022-09-23T22:08:58.944Z,89.56
2022-09-23T22:11:46.137Z,89.61
2022-09-23T22:14:13.940Z,89.40
2022-09-23T22:16:41.692Z,89.67
2022-09-23T22:19:09.286Z,89.63
2022-09-23T22:21:37.979Z,89.75
2022-09-23T22:24:08.184Z,89.44
2022-09-23T22:26:40.334Z,89.63
2022-09-23T22:29:27.256Z,89.65
2022-09-23T22:32:12.659Z,89.89
2022-09-23T22:34:53.193Z,89.94
2022-09-23T22:37:25.417Z,90.06
2022-09-23T22:39:51.858Z,90.19
2022-09-23T22:42:21.091Z,90.15
2022-09-23T22:44:48.151Z,90.02
2022-09-23T22:47:15.553Z,90.11
2022-09-23T22:49:42.804Z,90.22
2022-09-23T22:52:11.133Z,90.25
2022-09-23T22:54:37.746Z,90.21
2022-09-23T22:57:06.069Z,90.17
2022-09-23T22:59:32.937Z,90.38
2022-09-23T23:02:02.344Z,90.22
2022-09-23T23:04:29.888Z,90.44
2022-09-23T23:06:58.470Z,90.53
2022-09-23T23:09:25.068Z,90.48
2022-09-23T23:11:51.434Z,90.57
2022-09-23T23:14:18.591Z,90.75
2022-09-23T23:16:46.066Z,90.79
2022-09-23T23:19:16.376Z,90.67
2022-09-23T23:21:44.620Z,90.85
2022-09-23T23:24:22.327Z,91.00
2022-09-23T23:26:49.766Z,91.02
2022-09-23T23:29:17.573Z,90.91
2022-09-23T23:31:44.353Z,90.89
2022-09-23T23:34:13.464Z,91.03
2022-09-23T23:36:40.293Z,91.00
2022-09-23T23:39:07.199Z,91.16
2022-09-23T23:41:33.817Z,91.23
2022-09-23T23:44:01.170Z,91.19
2022-09-23T23:46:30.389Z,91.26
2022-09-23T23:48:57.295Z,91.24
2022-09-23T23:51:27.718Z,91.07
2022-09-23T23:53:56.456Z,91.21
2022-09-23T23:56:24.452Z,91.12
2022-09-23T23:58:55.745Z,91.14
